sensor_id;sensor_type;location;lat;lon;timestamp;P1;durP1;ratioP1;P2;durP2;ratioP2
82479;SDS011;72105;46.112;12.902;2024-03-08T00:02:00;7.03;;;4.68;;
82479;SDS011;72105;46.112;12.902;2024-03-08T00:04:26;7.15;;;4.43;;
82479;SDS011;72105;46.112;12.902;2024-03-08T00:06:52;6.03;;;4.18;;
82479;SDS011;72105;46.112;12.902;2024-03-08T00:09:18;7.30;;;4.32;;
82479;SDS011;72105;46.112;12.902;2024-03-08T00:11:44;7.05;;;4.43;;
82479;SDS011;72105;46.112;12.902;2024-03-08T00:14:11;6.32;;;3.55;;
82479;SDS011;72105;46.112;12.902;2024-03-08T00:16:37;5.97;;;3.67;;
82479;SDS011;72105;46.112;12.902;2024-03-08T00:19:03;6.32;;;4.10;;
82479;SDS011;72105;46.112;12.902;2024-03-08T00:21:29;4.95;;;3.78;;
82479;SDS011;72105;46.112;12.902;2024-03-08T00:23:56;4.53;;;3.33;;
82479;SDS011;72105;46.112;12.902;2024-03-08T00:26:22;5.47;;;3.75;;
82479;SDS011;72105;46.112;12.902;2024-03-08T00:28:48;6.82;;;4.40;;
82479;SDS011;72105;46.112;12.902;2024-03-08T00:31:14;7.05;;;4.20;;
82479;SDS011;72105;46.112;12.902;2024-03-08T00:33:42;7.40;;;4.40;;
82479;SDS011;72105;46.112;12.902;2024-03-08T00:36:08;7.07;;;4.28;;
82479;SDS011;72105;46.112;12.902;2024-03-08T00:38:34;6.00;;;3.88;;
82479;SDS011;72105;46.112;12.902;2024-03-08T00:41:00;5.22;;;3.55;;
82479;SDS011;72105;46.112;12.902;2024-03-08T00:43:27;5.95;;;4.20;;
82479;SDS011;72105;46.112;12.902;2024-03-08T00:45:55;4.90;;;3.42;;
82479;SDS011;72105;46.112;12.902;2024-03-08T00:48:22;4.75;;;3.30;;
82479;SDS011;72105;46.112;12.902;2024-03-08T00:50:49;5.47;;;3.75;;
82479;SDS011;72105;46.112;12.902;2024-03-08T00:53:15;5.88;;;3.85;;
82479;SDS011;72105;46.112;12.902;2024-03-08T00:55:42;5.70;;;3.58;;
82479;SDS011;72105;46.112;12.902;2024-03-08T00:58:11;4.03;;;3.50;;
82479;SDS011;72105;46.112;12.902;2024-03-08T01:00:37;4.55;;;3.40;;
82479;SDS011;72105;46.112;12.902;2024-03-08T01:03:04;4.00;;;2.67;;
82479;SDS011;72105;46.112;12.902;2024-03-08T01:05:31;4.20;;;3.42;;
82479;SDS011;72105;46.112;12.902;2024-03-08T01:07:58;6.15;;;3.30;;
82479;SDS011;72105;46.112;12.902;2024-03-08T01:10:24;3.70;;;2.80;;
82479;SDS011;72105;46.112;12.902;2024-03-08T01:12:51;4.53;;;3.17;;
82479;SDS011;72105;46.112;12.902;2024-03-08T01:15:19;4.40;;;3.30;;
82479;SDS011;72105;46.112;12.902;2024-03-08T01:17:45;4.10;;;2.63;;
82479;SDS011;72105;46.112;12.902;2024-03-08T01:20:11;4.53;;;3.10;;
82479;SDS011;72105;46.112;12.902;2024-03-08T01:22:38;4.75;;;2.78;;
82479;SDS011;72105;46.112;12.902;2024-03-08T01:25:04;3.80;;;3.00;;
82479;SDS011;72105;46.112;12.902;2024-03-08T01:27:31;4.45;;;2.85;;
82479;SDS011;72105;46.112;12.902;2024-03-08T01:29:57;3.55;;;2.45;;
82479;SDS011;72105;46.112;12.902;2024-03-08T01:32:24;2.95;;;2.15;;
82479;SDS011;72105;46.112;12.902;2024-03-08T01:34:50;5.57;;;2.90;;
82479;SDS011;72105;46.112;12.902;2024-03-08T01:37:17;4.05;;;2.72;;
82479;SDS011;72105;46.112;12.902;2024-03-08T01:39:43;3.70;;;2.60;;
82479;SDS011;72105;46.112;12.902;2024-03-08T01:42:09;3.90;;;2.70;;
82479;SDS011;72105;46.112;12.902;2024-03-08T01:44:37;3.70;;;2.47;;
82479;SDS011;72105;46.112;12.902;2024-03-08T01:47:04;3.17;;;2.33;;
82479;SDS011;72105;46.112;12.902;2024-03-08T01:49:31;3.42;;;2.50;;
82479;SDS011;72105;46.112;12.902;2024-03-08T01:51:58;3.45;;;2.03;;
82479;SDS011;72105;46.112;12.902;2024-03-08T01:54:24;3.05;;;2.67;;
82479;SDS011;72105;46.112;12.902;2024-03-08T01:56:50;4.05;;;2.80;;
82479;SDS011;72105;46.112;12.902;2024-03-08T01:59:18;3.85;;;2.45;;
82479;SDS011;72105;46.112;12.902;2024-03-08T02:01:44;4.00;;;2.35;;
82479;SDS011;72105;46.112;12.902;2024-03-08T02:04:10;3.97;;;2.40;;
82479;SDS011;72105;46.112;12.902;2024-03-08T02:06:36;3.28;;;2.72;;
82479;SDS011;72105;46.112;12.902;2024-03-08T02:09:03;3.38;;;2.33;;
82479;SDS011;72105;46.112;12.902;2024-03-08T02:11:35;3.00;;;2.35;;
82479;SDS011;72105;46.112;12.902;2024-03-08T02:14:02;2.75;;;2.22;;
82479;SDS011;72105;46.112;12.902;2024-03-08T02:16:31;3.67;;;2.45;;
82479;SDS011;72105;46.112;12.902;2024-03-08T02:18:58;3.90;;;2.67;;
82479;SDS011;72105;46.112;12.902;2024-03-08T02:21:25;3.35;;;2.40;;
82479;SDS011;72105;46.112;12.902;2024-03-08T02:23:51;3.60;;;2.47;;
82479;SDS011;72105;46.112;12.902;2024-03-08T02:26:17;3.72;;;2.80;;
82479;SDS011;72105;46.112;12.902;2024-03-08T02:28:44;4.18;;;2.65;;
82479;SDS011;72105;46.112;12.902;2024-03-08T02:31:10;2.95;;;2.58;;
82479;SDS011;72105;46.112;12.902;2024-03-08T02:33:37;3.58;;;2.85;;
82479;SDS011;72105;46.112;12.902;2024-03-08T02:36:03;4.63;;;3.22;;
82479;SDS011;72105;46.112;12.902;2024-03-08T02:38:31;3.10;;;2.35;;
82479;SDS011;72105;46.112;12.902;2024-03-08T02:40:58;4.22;;;3.15;;
82479;SDS011;72105;46.112;12.902;2024-03-08T02:43:24;3.40;;;2.72;;
82479;SDS011;72105;46.112;12.902;2024-03-08T02:45:50;3.80;;;2.78;;
82479;SDS011;72105;46.112;12.902;2024-03-08T02:48:19;3.58;;;2.50;;
82479;SDS011;72105;46.112;12.902;2024-03-08T02:50:46;4.72;;;3.00;;
82479;SDS011;72105;46.112;12.902;2024-03-08T02:53:13;3.90;;;2.33;;
82479;SDS011;72105;46.112;12.902;2024-03-08T02:55:39;4.65;;;3.17;;
82479;SDS011;72105;46.112;12.902;2024-03-08T02:58:06;3.60;;;2.65;;
82479;SDS011;72105;46.112;12.902;2024-03-08T03:00:38;3.65;;;2.60;;
82479;SDS011;72105;46.112;12.902;2024-03-08T03:03:05;3.50;;;2.85;;
82479;SDS011;72105;46.112;12.902;2024-03-08T03:05:32;4.07;;;2.80;;
82479;SDS011;72105;46.112;12.902;2024-03-08T03:07:58;3.35;;;2.53;;
82479;SDS011;72105;46.112;12.902;2024-03-08T03:10:25;4.85;;;3.53;;
82479;SDS011;72105;46.112;12.902;2024-03-08T03:12:51;3.67;;;2.53;;
82479;SDS011;72105;46.112;12.902;2024-03-08T03:15:17;3.88;;;2.67;;
82479;SDS011;72105;46.112;12.902;2024-03-08T03:17:50;5.38;;;2.67;;
82479;SDS011;72105;46.112;12.902;2024-03-08T03:20:17;3.95;;;2.42;;
82479;SDS011;72105;46.112;12.902;2024-03-08T03:22:50;4.10;;;2.47;;
82479;SDS011;72105;46.112;12.902;2024-03-08T03:25:20;3.05;;;2.20;;
82479;SDS011;72105;46.112;12.902;2024-03-08T03:27:53;3.90;;;2.53;;
82479;SDS011;72105;46.112;12.902;2024-03-08T03:30:22;2.60;;;2.28;;
82479;SDS011;72105;46.112;12.902;2024-03-08T03:32:49;3.60;;;2.72;;
82479;SDS011;72105;46.112;12.902;2024-03-08T03:35:18;2.35;;;2.03;;
82479;SDS011;72105;46.112;12.902;2024-03-08T03:37:45;2.67;;;2.10;;
82479;SDS011;72105;46.112;12.902;2024-03-08T03:40:30;2.22;;;1.83;;
82479;SDS011;72105;46.112;12.902;2024-03-08T03:42:57;3.83;;;2.40;;
82479;SDS011;72105;46.112;12.902;2024-03-08T03:45:23;3.70;;;2.50;;
82479;SDS011;72105;46.112;12.902;2024-03-08T03:47:50;2.80;;;2.10;;
82479;SDS011;72105;46.112;12.902;2024-03-08T03:50:17;3.22;;;2.40;;
82479;SDS011;72105;46.112;12.902;2024-03-08T03:52:44;2.72;;;1.88;;
82479;SDS011;72105;46.112;12.902;2024-03-08T03:55:11;2.97;;;1.95;;
82479;SDS011;72105;46.112;12.902;2024-03-08T03:57:37;3.72;;;2.63;;
82479;SDS011;72105;46.112;12.902;2024-03-08T04:00:03;2.80;;;2.00;;
82479;SDS011;72105;46.112;12.902;2024-03-08T04:02:30;3.17;;;2.10;;
82479;SDS011;72105;46.112;12.902;2024-03-08T04:04:56;3.63;;;2.22;;
82479;SDS011;72105;46.112;12.902;2024-03-08T04:07:22;2.60;;;1.80;;
82479;SDS011;72105;46.112;12.902;2024-03-08T04:09:48;3.22;;;1.90;;
82479;SDS011;72105;46.112;12.902;2024-03-08T04:12:14;3.20;;;2.13;;
82479;SDS011;72105;46.112;12.902;2024-03-08T04:14:41;2.35;;;1.90;;
82479;SDS011;72105;46.112;12.902;2024-03-08T04:17:07;2.00;;;1.80;;
82479;SDS011;72105;46.112;12.902;2024-03-08T04:19:37;3.28;;;1.92;;
82479;SDS011;72105;46.112;12.902;2024-03-08T04:22:03;3.08;;;2.28;;
82479;SDS011;72105;46.112;12.902;2024-03-08T04:24:29;2.60;;;2.03;;
82479;SDS011;72105;46.112;12.902;2024-03-08T04:26:56;4.72;;;2.38;;
82479;SDS011;72105;46.112;12.902;2024-03-08T04:29:23;3.63;;;2.30;;
82479;SDS011;72105;46.112;12.902;2024-03-08T04:31:49;4.05;;;2.70;;
82479;SDS011;72105;46.112;12.902;2024-03-08T04:34:19;2.78;;;2.03;;
82479;SDS011;72105;46.112;12.902;2024-03-08T04:36:46;4.03;;;2.17;;
82479;SDS011;72105;46.112;12.902;2024-03-08T04:39:12;3.72;;;2.45;;
82479;SDS011;72105;46.112;12.902;2024-03-08T04:41:38;3.97;;;2.53;;
82479;SDS011;72105;46.112;12.902;2024-03-08T04:44:04;3.35;;;2.20;;
82479;SDS011;72105;46.112;12.902;2024-03-08T04:46:31;5.15;;;3.03;;
82479;SDS011;72105;46.112;12.902;2024-03-08T04:48:57;3.47;;;2.20;;
82479;SDS011;72105;46.112;12.902;2024-03-08T04:51:24;4.97;;;2.50;;
82479;SDS011;72105;46.112;12.902;2024-03-08T04:53:50;3.83;;;2.38;;
82479;SDS011;72105;46.112;12.902;2024-03-08T04:56:16;2.72;;;2.47;;
82479;SDS011;72105;46.112;12.902;2024-03-08T04:58:45;2.28;;;1.83;;
82479;SDS011;72105;46.112;12.902;2024-03-08T05:01:14;2.13;;;1.83;;
82479;SDS011;72105;46.112;12.902;2024-03-08T05:03:40;3.40;;;2.22;;
82479;SDS011;72105;46.112;12.902;2024-03-08T05:06:06;2.67;;;2.30;;
82479;SDS011;72105;46.112;12.902;2024-03-08T05:08:33;2.92;;;2.10;;
82479;SDS011;72105;46.112;12.902;2024-03-08T05:10:59;2.33;;;1.83;;
82479;SDS011;72105;46.112;12.902;2024-03-08T05:13:29;2.53;;;1.80;;
82479;SDS011;72105;46.112;12.902;2024-03-08T05:15:56;2.90;;;1.85;;
82479;SDS011;72105;46.112;12.902;2024-03-08T05:18:24;2.13;;;1.58;;
82479;SDS011;72105;46.112;12.902;2024-03-08T05:20:53;2.40;;;1.67;;
82479;SDS011;72105;46.112;12.902;2024-03-08T05:23:19;2.40;;;1.85;;
82479;SDS011;72105;46.112;12.902;2024-03-08T05:25:47;3.28;;;2.20;;
82479;SDS011;72105;46.112;12.902;2024-03-08T05:28:13;3.05;;;2.35;;
82479;SDS011;72105;46.112;12.902;2024-03-08T05:30:39;3.33;;;2.00;;
82479;SDS011;72105;46.112;12.902;2024-03-08T05:33:06;4.15;;;2.60;;
82479;SDS011;72105;46.112;12.902;2024-03-08T05:35:35;2.97;;;1.98;;
82479;SDS011;72105;46.112;12.902;2024-03-08T05:38:02;3.80;;;2.55;;
82479;SDS011;72105;46.112;12.902;2024-03-08T05:40:28;5.28;;;2.67;;
82479;SDS011;72105;46.112;12.902;2024-03-08T05:42:57;3.58;;;2.22;;
82479;SDS011;72105;46.112;12.902;2024-03-08T05:45:24;4.30;;;2.38;;
82479;SDS011;72105;46.112;12.902;2024-03-08T05:47:51;2.63;;;2.25;;
82479;SDS011;72105;46.112;12.902;2024-03-08T05:50:17;2.78;;;2.35;;
82479;SDS011;72105;46.112;12.902;2024-03-08T05:52:44;2.78;;;1.90;;
82479;SDS011;72105;46.112;12.902;2024-03-08T05:55:10;2.88;;;2.15;;
82479;SDS011;72105;46.112;12.902;2024-03-08T05:57:39;2.95;;;2.17;;
82479;SDS011;72105;46.112;12.902;2024-03-08T06:00:05;3.78;;;2.17;;
82479;SDS011;72105;46.112;12.902;2024-03-08T06:02:32;3.78;;;1.92;;
82479;SDS011;72105;46.112;12.902;2024-03-08T06:04:58;2.28;;;1.60;;
82479;SDS011;72105;46.112;12.902;2024-03-08T06:07:27;3.03;;;2.00;;
82479;SDS011;72105;46.112;12.902;2024-03-08T06:09:53;3.30;;;2.25;;
82479;SDS011;72105;46.112;12.902;2024-03-08T06:12:19;3.65;;;2.10;;
82479;SDS011;72105;46.112;12.902;2024-03-08T06:14:46;2.80;;;1.92;;
82479;SDS011;72105;46.112;12.902;2024-03-08T06:17:12;3.53;;;1.83;;
82479;SDS011;72105;46.112;12.902;2024-03-08T06:19:38;3.25;;;2.08;;
82479;SDS011;72105;46.112;12.902;2024-03-08T06:22:04;3.67;;;2.53;;
82479;SDS011;72105;46.112;12.902;2024-03-08T06:24:33;3.42;;;2.30;;
82479;SDS011;72105;46.112;12.902;2024-03-08T06:27:02;5.80;;;2.78;;
82479;SDS011;72105;46.112;12.902;2024-03-08T06:29:28;3.13;;;1.88;;
82479;SDS011;72105;46.112;12.902;2024-03-08T06:31:55;3.75;;;2.05;;
82479;SDS011;72105;46.112;12.902;2024-03-08T06:34:21;2.28;;;2.03;;
82479;SDS011;72105;46.112;12.902;2024-03-08T06:36:47;3.15;;;1.92;;
82479;SDS011;72105;46.112;12.902;2024-03-08T06:39:13;3.38;;;2.17;;
82479;SDS011;72105;46.112;12.902;2024-03-08T06:41:39;3.65;;;2.17;;
82479;SDS011;72105;46.112;12.902;2024-03-08T06:44:05;4.43;;;3.10;;
82479;SDS011;72105;46.112;12.902;2024-03-08T06:46:33;11.85;;;4.32;;
82479;SDS011;72105;46.112;12.902;2024-03-08T06:48:59;9.48;;;4.82;;
82479;SDS011;72105;46.112;12.902;2024-03-08T06:51:25;7.65;;;5.10;;
82479;SDS011;72105;46.112;12.902;2024-03-08T06:53:51;3.97;;;2.80;;
82479;SDS011;72105;46.112;12.902;2024-03-08T06:56:18;4.20;;;2.28;;
82479;SDS011;72105;46.112;12.902;2024-03-08T06:58:44;4.40;;;2.55;;
82479;SDS011;72105;46.112;12.902;2024-03-08T07:01:11;2.42;;;1.83;;
82479;SDS011;72105;46.112;12.902;2024-03-08T07:03:41;1.75;;;1.60;;
82479;SDS011;72105;46.112;12.902;2024-03-08T07:06:09;2.80;;;1.98;;
82479;SDS011;72105;46.112;12.902;2024-03-08T07:08:36;3.45;;;2.15;;
82479;SDS011;72105;46.112;12.902;2024-03-08T07:11:02;4.38;;;2.70;;
82479;SDS011;72105;46.112;12.902;2024-03-08T07:13:28;4.20;;;2.42;;
82479;SDS011;72105;46.112;12.902;2024-03-08T07:15:55;4.05;;;2.97;;
82479;SDS011;72105;46.112;12.902;2024-03-08T07:18:21;3.83;;;2.50;;
82479;SDS011;72105;46.112;12.902;2024-03-08T07:20:47;3.70;;;2.50;;
82479;SDS011;72105;46.112;12.902;2024-03-08T07:23:14;3.85;;;2.67;;
82479;SDS011;72105;46.112;12.902;2024-03-08T07:26:00;2.67;;;2.13;;
82479;SDS011;72105;46.112;12.902;2024-03-08T07:28:27;3.97;;;2.63;;
82479;SDS011;72105;46.112;12.902;2024-03-08T07:30:55;3.92;;;2.25;;
82479;SDS011;72105;46.112;12.902;2024-03-08T07:33:34;5.53;;;2.75;;
82479;SDS011;72105;46.112;12.902;2024-03-08T07:36:00;3.72;;;2.42;;
82479;SDS011;72105;46.112;12.902;2024-03-08T07:38:27;3.88;;;2.33;;
82479;SDS011;72105;46.112;12.902;2024-03-08T07:40:54;3.78;;;2.80;;
82479;SDS011;72105;46.112;12.902;2024-03-08T07:45:48;4.32;;;3.08;;
82479;SDS011;72105;46.112;12.902;2024-03-08T07:48:14;4.22;;;2.92;;
82479;SDS011;72105;46.112;12.902;2024-03-08T07:50:41;4.40;;;2.63;;
82479;SDS011;72105;46.112;12.902;2024-03-08T07:53:08;3.00;;;2.25;;
82479;SDS011;72105;46.112;12.902;2024-03-08T07:55:34;4.40;;;2.60;;
82479;SDS011;72105;46.112;12.902;2024-03-08T07:58:01;4.10;;;2.92;;
82479;SDS011;72105;46.112;12.902;2024-03-08T08:00:28;4.28;;;2.85;;
82479;SDS011;72105;46.112;12.902;2024-03-08T08:02:56;3.63;;;2.25;;
82479;SDS011;72105;46.112;12.902;2024-03-08T08:05:22;4.07;;;2.95;;
82479;SDS011;72105;46.112;12.902;2024-03-08T08:07:48;11.10;;;6.40;;
82479;SDS011;72105;46.112;12.902;2024-03-08T08:10:15;3.63;;;2.60;;
82479;SDS011;72105;46.112;12.902;2024-03-08T08:12:48;4.43;;;2.60;;
82479;SDS011;72105;46.112;12.902;2024-03-08T08:15:14;3.83;;;2.35;;
82479;SDS011;72105;46.112;12.902;2024-03-08T08:17:43;5.15;;;2.80;;
82479;SDS011;72105;46.112;12.902;2024-03-08T08:20:13;4.05;;;2.53;;
82479;SDS011;72105;46.112;12.902;2024-03-08T08:22:39;4.00;;;2.35;;
82479;SDS011;72105;46.112;12.902;2024-03-08T08:25:06;4.15;;;2.85;;
82479;SDS011;72105;46.112;12.902;2024-03-08T08:27:32;6.10;;;3.22;;
82479;SDS011;72105;46.112;12.902;2024-03-08T08:29:58;5.25;;;2.72;;
82479;SDS011;72105;46.112;12.902;2024-03-08T08:32:25;5.30;;;3.85;;
82479;SDS011;72105;46.112;12.902;2024-03-08T08:34:51;4.45;;;3.05;;
82479;SDS011;72105;46.112;12.902;2024-03-08T08:37:17;5.40;;;3.20;;
82479;SDS011;72105;46.112;12.902;2024-03-08T08:39:43;6.00;;;4.05;;
82479;SDS011;72105;46.112;12.902;2024-03-08T08:42:10;5.32;;;3.95;;
82479;SDS011;72105;46.112;12.902;2024-03-08T08:44:36;4.60;;;3.53;;
82479;SDS011;72105;46.112;12.902;2024-03-08T08:47:02;7.65;;;3.85;;
82479;SDS011;72105;46.112;12.902;2024-03-08T08:49:29;5.57;;;4.13;;
82479;SDS011;72105;46.112;12.902;2024-03-08T08:51:56;6.63;;;3.63;;
82479;SDS011;72105;46.112;12.902;2024-03-08T08:54:23;7.60;;;4.28;;
82479;SDS011;72105;46.112;12.902;2024-03-08T08:56:50;5.40;;;4.03;;
82479;SDS011;72105;46.112;12.902;2024-03-08T08:59:16;7.28;;;4.57;;
82479;SDS011;72105;46.112;12.902;2024-03-08T09:01:46;5.00;;;3.33;;
82479;SDS011;72105;46.112;12.902;2024-03-08T09:04:12;5.60;;;4.25;;
82479;SDS011;72105;46.112;12.902;2024-03-08T09:06:38;6.38;;;4.47;;
82479;SDS011;72105;46.112;12.902;2024-03-08T09:09:08;7.72;;;4.75;;
82479;SDS011;72105;46.112;12.902;2024-03-08T09:11:36;4.95;;;3.55;;
82479;SDS011;72105;46.112;12.902;2024-03-08T09:14:06;6.85;;;4.55;;
82479;SDS011;72105;46.112;12.902;2024-03-08T09:16:32;7.45;;;4.40;;
82479;SDS011;72105;46.112;12.902;2024-03-08T09:18:59;5.53;;;3.65;;
82479;SDS011;72105;46.112;12.902;2024-03-08T09:21:25;4.55;;;3.40;;
82479;SDS011;72105;46.112;12.902;2024-03-08T09:23:52;5.93;;;4.20;;
82479;SDS011;72105;46.112;12.902;2024-03-08T09:26:19;6.10;;;4.10;;
82479;SDS011;72105;46.112;12.902;2024-03-08T09:28:45;5.68;;;4.35;;
82479;SDS011;72105;46.112;12.902;2024-03-08T09:31:11;6.10;;;4.80;;
82479;SDS011;72105;46.112;12.902;2024-03-08T09:33:38;6.13;;;3.90;;
82479;SDS011;72105;46.112;12.902;2024-03-08T09:36:07;5.82;;;3.92;;
82479;SDS011;72105;46.112;12.902;2024-03-08T09:38:33;5.20;;;3.72;;
82479;SDS011;72105;46.112;12.902;2024-03-08T09:40:59;5.22;;;3.55;;
82479;SDS011;72105;46.112;12.902;2024-03-08T09:43:27;6.20;;;4.13;;
82479;SDS011;72105;46.112;12.902;2024-03-08T09:45:53;4.88;;;3.30;;
82479;SDS011;72105;46.112;12.902;2024-03-08T09:48:21;6.95;;;3.72;;
82479;SDS011;72105;46.112;12.902;2024-03-08T09:50:47;6.30;;;3.28;;
82479;SDS011;72105;46.112;12.902;2024-03-08T09:53:14;5.78;;;4.05;;
82479;SDS011;72105;46.112;12.902;2024-03-08T09:58:10;6.03;;;3.78;;
82479;SDS011;72105;46.112;12.902;2024-03-08T10:01:07;7.68;;;3.55;;
82479;SDS011;72105;46.112;12.902;2024-03-08T10:03:33;5.10;;;3.80;;
82479;SDS011;72105;46.112;12.902;2024-03-08T10:06:01;6.60;;;3.95;;
82479;SDS011;72105;46.112;12.902;2024-03-08T10:08:27;4.50;;;3.17;;
82479;SDS011;72105;46.112;12.902;2024-03-08T10:10:57;4.22;;;2.88;;
82479;SDS011;72105;46.112;12.902;2024-03-08T10:13:27;5.63;;;2.95;;
82479;SDS011;72105;46.112;12.902;2024-03-08T10:15:56;2.97;;;2.35;;
82479;SDS011;72105;46.112;12.902;2024-03-08T10:18:22;3.67;;;2.35;;
82479;SDS011;72105;46.112;12.902;2024-03-08T10:21:09;4.03;;;2.75;;
82479;SDS011;72105;46.112;12.902;2024-03-08T10:23:35;6.38;;;3.35;;
82479;SDS011;72105;46.112;12.902;2024-03-08T10:26:11;3.95;;;2.30;;
82479;SDS011;72105;46.112;12.902;2024-03-08T10:28:44;6.13;;;2.67;;
82479;SDS011;72105;46.112;12.902;2024-03-08T10:31:10;7.45;;;3.42;;
82479;SDS011;72105;46.112;12.902;2024-03-08T10:33:37;3.53;;;2.97;;
82479;SDS011;72105;46.112;12.902;2024-03-08T10:36:08;4.22;;;3.15;;
82479;SDS011;72105;46.112;12.902;2024-03-08T10:38:38;6.18;;;3.53;;
82479;SDS011;72105;46.112;12.902;2024-03-08T10:41:12;6.53;;;3.30;;
82479;SDS011;72105;46.112;12.902;2024-03-08T10:46:15;5.28;;;3.22;;
82479;SDS011;72105;46.112;12.902;2024-03-08T10:48:47;2.88;;;2.40;;
82479;SDS011;72105;46.112;12.902;2024-03-08T10:51:15;4.35;;;2.55;;
82479;SDS011;72105;46.112;12.902;2024-03-08T10:53:41;5.53;;;3.40;;
82479;SDS011;72105;46.112;12.902;2024-03-08T10:56:08;6.25;;;3.20;;
82479;SDS011;72105;46.112;12.902;2024-03-08T10:58:35;5.32;;;3.72;;
82479;SDS011;72105;46.112;12.902;2024-03-08T11:01:03;5.28;;;3.67;;
82479;SDS011;72105;46.112;12.902;2024-03-08T11:06:07;4.63;;;3.05;;
82479;SDS011;72105;46.112;12.902;2024-03-08T11:08:37;6.30;;;4.03;;
82479;SDS011;72105;46.112;12.902;2024-03-08T11:11:04;5.30;;;3.58;;
82479;SDS011;72105;46.112;12.902;2024-03-08T11:13:36;6.57;;;4.18;;
82479;SDS011;72105;46.112;12.902;2024-03-08T11:16:12;7.80;;;3.95;;
82479;SDS011;72105;46.112;12.902;2024-03-08T11:19:22;5.90;;;3.85;;
82479;SDS011;72105;46.112;12.902;2024-03-08T11:21:59;6.05;;;3.90;;
82479;SDS011;72105;46.112;12.902;2024-03-08T11:24:25;7.05;;;3.33;;
82479;SDS011;72105;46.112;12.902;2024-03-08T11:26:54;5.28;;;2.97;;
82479;SDS011;72105;46.112;12.902;2024-03-08T11:32:12;4.53;;;3.72;;
82479;SDS011;72105;46.112;12.902;2024-03-08T11:34:41;6.15;;;3.92;;
82479;SDS011;72105;46.112;12.902;2024-03-08T11:37:13;5.63;;;3.63;;
82479;SDS011;72105;46.112;12.902;2024-03-08T11:39:41;6.85;;;4.63;;
82479;SDS011;72105;46.112;12.902;2024-03-08T11:42:12;8.20;;;4.35;;
82479;SDS011;72105;46.112;12.902;2024-03-08T11:44:39;5.05;;;3.63;;
82479;SDS011;72105;46.112;12.902;2024-03-08T11:47:09;7.53;;;3.67;;
82479;SDS011;72105;46.112;12.902;2024-03-08T11:49:36;6.38;;;4.07;;
82479;SDS011;72105;46.112;12.902;2024-03-08T11:52:02;10.15;;;7.13;;
82479;SDS011;72105;46.112;12.902;2024-03-08T11:54:28;16.55;;;9.70;;
82479;SDS011;72105;46.112;12.902;2024-03-08T11:56:55;6.80;;;4.63;;
82479;SDS011;72105;46.112;12.902;2024-03-08T11:59:27;6.93;;;4.05;;
82479;SDS011;72105;46.112;12.902;2024-03-08T12:04:19;6.13;;;3.80;;
82479;SDS011;72105;46.112;12.902;2024-03-08T12:06:45;5.85;;;3.40;;
82479;SDS011;72105;46.112;12.902;2024-03-08T12:11:39;6.45;;;4.18;;
82479;SDS011;72105;46.112;12.902;2024-03-08T12:14:06;5.60;;;3.58;;
82479;SDS011;72105;46.112;12.902;2024-03-08T12:16:32;6.05;;;3.53;;
82479;SDS011;72105;46.112;12.902;2024-03-08T12:18:59;5.25;;;3.28;;
82479;SDS011;72105;46.112;12.902;2024-03-08T12:21:26;4.97;;;3.88;;
82479;SDS011;72105;46.112;12.902;2024-03-08T12:24:07;8.50;;;4.50;;
82479;SDS011;72105;46.112;12.902;2024-03-08T12:26:34;9.23;;;5.18;;
82479;SDS011;72105;46.112;12.902;2024-03-08T12:31:47;5.93;;;3.53;;
82479;SDS011;72105;46.112;12.902;2024-03-08T12:36:44;4.85;;;3.67;;
82479;SDS011;72105;46.112;12.902;2024-03-08T12:39:13;3.58;;;2.75;;
82479;SDS011;72105;46.112;12.902;2024-03-08T12:41:41;4.50;;;3.42;;
82479;SDS011;72105;46.112;12.902;2024-03-08T12:44:07;5.68;;;3.05;;
82479;SDS011;72105;46.112;12.902;2024-03-08T12:46:36;5.13;;;2.90;;
82479;SDS011;72105;46.112;12.902;2024-03-08T12:49:08;4.28;;;3.28;;
82479;SDS011;72105;46.112;12.902;2024-03-08T12:51:35;5.07;;;2.67;;
82479;SDS011;72105;46.112;12.902;2024-03-08T12:54:02;3.65;;;3.05;;
82479;SDS011;72105;46.112;12.902;2024-03-08T12:56:31;5.97;;;3.60;;
82479;SDS011;72105;46.112;12.902;2024-03-08T12:58:59;4.45;;;3.08;;
82479;SDS011;72105;46.112;12.902;2024-03-08T13:01:25;3.78;;;2.42;;
82479;SDS011;72105;46.112;12.902;2024-03-08T13:03:52;5.90;;;3.65;;
82479;SDS011;72105;46.112;12.902;2024-03-08T13:06:21;5.22;;;3.70;;
82479;SDS011;72105;46.112;12.902;2024-03-08T13:08:50;5.68;;;3.28;;
82479;SDS011;72105;46.112;12.902;2024-03-08T13:11:20;4.38;;;2.80;;
82479;SDS011;72105;46.112;12.902;2024-03-08T13:13:46;5.80;;;4.10;;
82479;SDS011;72105;46.112;12.902;2024-03-08T13:16:12;7.32;;;3.97;;
82479;SDS011;72105;46.112;12.902;2024-03-08T13:18:44;7.15;;;4.13;;
82479;SDS011;72105;46.112;12.902;2024-03-08T13:21:10;4.72;;;3.50;;
82479;SDS011;72105;46.112;12.902;2024-03-08T13:23:39;5.78;;;3.45;;
82479;SDS011;72105;46.112;12.902;2024-03-08T13:26:06;5.25;;;3.25;;
82479;SDS011;72105;46.112;12.902;2024-03-08T13:28:32;4.85;;;3.10;;
82479;SDS011;72105;46.112;12.902;2024-03-08T13:31:05;5.95;;;3.35;;
82479;SDS011;72105;46.112;12.902;2024-03-08T13:33:37;4.45;;;3.35;;
82479;SDS011;72105;46.112;12.902;2024-03-08T13:36:11;5.15;;;3.42;;
82479;SDS011;72105;46.112;12.902;2024-03-08T13:38:44;5.47;;;3.30;;
82479;SDS011;72105;46.112;12.902;2024-03-08T13:41:11;3.95;;;3.25;;
82479;SDS011;72105;46.112;12.902;2024-03-08T13:43:40;5.47;;;3.33;;
82479;SDS011;72105;46.112;12.902;2024-03-08T13:46:06;6.72;;;3.45;;
82479;SDS011;72105;46.112;12.902;2024-03-08T13:48:32;5.40;;;3.17;;
82479;SDS011;72105;46.112;12.902;2024-03-08T13:50:59;5.15;;;3.90;;
82479;SDS011;72105;46.112;12.902;2024-03-08T13:53:25;5.03;;;3.10;;
82479;SDS011;72105;46.112;12.902;2024-03-08T13:55:51;5.07;;;3.53;;
82479;SDS011;72105;46.112;12.902;2024-03-08T13:58:17;5.13;;;3.20;;
82479;SDS011;72105;46.112;12.902;2024-03-08T14:00:45;4.50;;;3.22;;
82479;SDS011;72105;46.112;12.902;2024-03-08T14:05:41;4.50;;;3.22;;
82479;SDS011;72105;46.112;12.902;2024-03-08T14:08:10;5.22;;;3.30;;
82479;SDS011;72105;46.112;12.902;2024-03-08T14:10:37;4.63;;;3.08;;
82479;SDS011;72105;46.112;12.902;2024-03-08T14:13:04;4.13;;;2.92;;
82479;SDS011;72105;46.112;12.902;2024-03-08T14:15:31;4.07;;;2.90;;
82479;SDS011;72105;46.112;12.902;2024-03-08T14:17:58;4.32;;;3.00;;
82479;SDS011;72105;46.112;12.902;2024-03-08T14:20:24;5.13;;;3.47;;
82479;SDS011;72105;46.112;12.902;2024-03-08T14:22:51;5.40;;;3.67;;
82479;SDS011;72105;46.112;12.902;2024-03-08T14:25:17;6.35;;;3.13;;
82479;SDS011;72105;46.112;12.902;2024-03-08T14:27:45;4.50;;;3.55;;
82479;SDS011;72105;46.112;12.902;2024-03-08T14:30:12;5.53;;;3.42;;
82479;SDS011;72105;46.112;12.902;2024-03-08T14:32:38;4.82;;;3.22;;
82479;SDS011;72105;46.112;12.902;2024-03-08T14:35:05;5.47;;;3.38;;
82479;SDS011;72105;46.112;12.902;2024-03-08T14:37:31;6.72;;;3.70;;
82479;SDS011;72105;46.112;12.902;2024-03-08T14:39:57;5.78;;;3.88;;
82479;SDS011;72105;46.112;12.902;2024-03-08T14:42:23;7.15;;;4.50;;
82479;SDS011;72105;46.112;12.902;2024-03-08T14:44:51;6.45;;;3.58;;
82479;SDS011;72105;46.112;12.902;2024-03-08T14:47:19;5.88;;;3.75;;
82479;SDS011;72105;46.112;12.902;2024-03-08T14:49:47;6.28;;;3.60;;
82479;SDS011;72105;46.112;12.902;2024-03-08T14:52:14;5.60;;;3.92;;
82479;SDS011;72105;46.112;12.902;2024-03-08T14:55:00;4.13;;;2.88;;
82479;SDS011;72105;46.112;12.902;2024-03-08T14:57:28;5.88;;;3.78;;
82479;SDS011;72105;46.112;12.902;2024-03-08T14:59:57;6.28;;;3.75;;
82479;SDS011;72105;46.112;12.902;2024-03-08T15:02:32;6.25;;;3.70;;